NCAR-RAP Real-Time Weather Data

Output produced by METARs form (14 October 2019  23:31 UTC)
found at http://weather.rap.ucar.edu/surface/
 
KIAH 142323Z 10010KT 10SM BKN009 BKN090 BKN180 26/24 A2993 RMK AO2 LTG DSNT N AND NW CB DSNT NW T02610244
KIAH 142253Z 11010KT 10SM FEW016 SCT038 BKN090 BKN180 BKN250 27/24 A2992 RMK AO2 LTG DSNT NW RAB09E34 TSE44 SLP132 CB DSNT SE NW P0008 T02670244
KIAH 142244Z 12010KT 10SM FEW016 SCT038 BKN085 BKN150 BKN250 27/24 A2992 RMK AO2 LTG DSNT NW RAB09E34 TSE44 TS DSIPTD CB DSNT SE NW P0008 T02670244
KIAH 142153Z 11011KT 10SM TS FEW021 SCT032CB BKN085 BKN150 BKN250 29/24 A2992 RMK AO2 LTG DSNT SE AND S AND NW TSB38 SLP130 OCNL LTGICCG SE-SW TS SE-SW MOV NE CB DSNT NW T02890239
KIAH 142139Z 12009KT 10SM TS FEW023 SCT032CB BKN085 BKN150 BKN250 28/24 A2992 RMK AO2 LTG DSNT SE AND S TSB38 OCNL LTGICCG SE-SW TS SE-SW MOV NE T02830239
KIAH 142053Z 11010KT 10SM SCT032 BKN090 BKN120 BKN250 29/23 A2991 RMK AO2 SLP129 CB DSNT N SE 60003 T02940233 56019
KIAH 141953Z 02004KT 10SM FEW030 BKN080 BKN120 OVC250 31/24 A2993 RMK AO2 LTG DSNT NE AND NW RAE1855 SLP133 CB DSNT N-SE AND NW P0000 T03110244
KIAH 141853Z 27005KT 10SM -RA FEW030 SCT080 BKN110 BKN250 29/25 A2994 RMK AO2 LTG DSNT NE RAB25 TSB12E53 SLP139 TS DSIPTD CB DSNT NE SE AND NW P0003 T02940250
KIAH 141812Z 15004KT 10SM TS SCT030CB BKN080 BKN250 29/22 A2996 RMK AO2 TSB12 OCNL LTGCG SW-W TS SW-W MOV NE VCSH SW-W T02940222
KIAH 141753Z 21003KT 10SM SCT025 BKN080 BKN250 31/23 A2997 RMK AO2 SLP148 CB AND SHRA DSNT SW MOV NE 60000 T03060228 10311 20206 58012
KIAH 141653Z 16005KT 10SM SCT023 BKN085 BKN250 29/23 A2999 RMK AO2 RAE07 SLP156 TCU DSNT SW P0000 T02940233
KIAH 141553Z 15007KT 10SM -RA SCT023 BKN070 OVC090 27/22 A3001 RMK AO2 RAB51 SLP161 P0000 T02670217
KIAH 141453Z 11005KT 10SM FEW007 SCT033 SCT055 SCT130 BKN250 26/21 A3001 RMK AO2 SLP161 ACC DSNT S AND SW T02560211 53011
KIAH 141423Z 11007KT 10SM FEW007 SCT055 BKN100 BKN250 24/19 A3000 RMK AO2 T02390194
KIAH 141353Z 10006KT 10SM FEW020 FEW050 SCT100 BKN250 23/18 A2999 RMK AO2 SLP156 T02280183
KIAH 141253Z 13003KT 10SM FEW019 SCT050 BKN100 BKN250 21/18 A2997 RMK AO2 SLP149 CB DSNT SE AND S T02110178
KIAH 141153Z 12005KT 10SM SCT019 SCT050 BKN070 21/17 A2997 RMK AO2 SLP150 T02110172 10217 20206 53001
KIAH 141053Z 06004KT 10SM FEW035 SCT070 BKN090 21/17 A2996 RMK AO2 SLP146 T02060172
KIAH 140953Z 05004KT 10SM SCT037 BKN080 BKN120 BKN250 21/17 A2997 RMK AO2 SLP147 T02110167
KIAH 140853Z 03004KT 10SM FEW030 SCT060 BKN120 BKN250 22/17 A2997 RMK AO2 SLP149 T02170172 58010
KIAH 140753Z 10006KT 10SM FEW034 SCT120 BKN160 OVC250 21/17 A2999 RMK AO2 SLP153 T02110172
KIAH 140653Z 10005KT 10SM BKN065 BKN130 OVC180 21/17 A2999 RMK AO2 SLP156 T02110172
KIAH 140553Z 05004KT 10SM FEW080 BKN120 OVC200 22/17 A3000 RMK AO2 SLP159 T02170172 10250 20211 402780133 51003
KIAH 140453Z 07008KT 10SM FEW080 BKN130 OVC250 22/17 A3000 RMK AO2 SLP158 T02170172
KIAH 140353Z 05007KT 10SM FEW050 BKN085 BKN250 22/17 A3000 RMK AO2 SLP159 T02220172
KIAH 140253Z 11005KT 10SM FEW050 SCT085 BKN250 22/17 A2999 RMK AO2 SLP156 T02220167 53007
KIAH 140153Z 10009KT 10SM FEW050 SCT100 BKN250 23/17 A2998 RMK AO2 SLP153 T02280167
KIAH 140053Z 07009KT 10SM BKN100 BKN200 BKN250 23/17 A2997 RMK AO2 SLP150 T02280172
KIAH 132353Z 06006KT 10SM SCT095 BKN180 BKN250 24/17 A2997 RMK AO2 SLP149 T02440172 10278 20239 55000
KIAH 132253Z 04007KT 10SM BKN090 BKN180 BKN250 26/16 A2996 RMK AO2 SLP144 T02610161
KIAH 132153Z 35003KT 10SM FEW050 SCT085 SCT150 BKN250 27/16 A2996 RMK AO2 SLP145 T02720156
KIAH 132053Z 06003KT 10SM SCT050 SCT100 SCT150 SCT250 27/16 A2997 RMK AO2 SLP149 T02670156 56025
KIAH 131953Z 28003KT 10SM FEW050 FEW100 SCT140 SCT250 27/15 A2998 RMK AO2 SLP150 T02670150
KIAH 131853Z 08004KT 10SM FEW035 FEW055 SCT140 SCT250 26/14 A3001 RMK AO2 SLP163 T02610139
KIAH 131753Z VRB03KT 10SM FEW045 SCT100 SCT180 BKN250 24/11 A3004 RMK AO2 SLP173 T02390111 10239 20144 58009
KIAH 131653Z 03006KT 10SM FEW025 BKN047 BKN100 22/11 A3007 RMK AO2 SLP183 T02220106
KIAH 131553Z 06004KT 10SM BKN045 BKN100 20/11 A3008 RMK AO2 SLP184 T02000106
KIAH 131453Z 04004KT 10SM BKN045 OVC095 17/10 A3007 RMK AO2 SLP183 T01720100 53011
KIAH 131353Z 33005KT 10SM FEW050 BKN095 BKN250 17/09 A3006 RMK AO2 SLP180 T01720094
KIAH 131253Z 09003KT 10SM FEW050 BKN095 BKN200 15/10 A3004 RMK AO2 SLP170 T01500100
KIAH 131153Z 08004KT 10SM FEW050 SCT100 BKN200 15/09 A3004 RMK AO2 SLP171 T01500094 10150 20133 53004
KIAH 131053Z 36003KT 10SM FEW050 SCT095 BKN250 14/09 A3004 RMK AO2 SLP172 T01440094
KIAH 130953Z 02004KT 10SM FEW100 BKN250 14/10 A3002 RMK AO2 SLP165 T01440100
KIAH 130853Z 34004KT 10SM OVC240 14/10 A3003 RMK AO2 SLP167 T01440100 56017
KIAH 130753Z 06003KT 10SM OVC240 13/10 A3003 RMK AO2 SLP170 T01330100
KIAH 130653Z 04003KT 10SM BKN240 14/09 A3005 RMK AO2 SLP175 T01390094
KIAH 130553Z 33004KT 10SM FEW170 BKN240 14/09 A3008 RMK AO2 SLP185 T01390089 10167 20133 402220117 53001
KIAH 130453Z 13006KT 10SM FEW170 BKN240 13/09 A3006 RMK AO2 SLP179 T01330089
KIAH 130353Z 06003KT 10SM SCT170 BKN250 13/09 A3007 RMK AO2 SLP183 T01330094
KIAH 130253Z VRB04KT 10SM SCT160 BKN250 14/08 A3007 RMK AO2 SLP183 T01440078 55000
KIAH 130153Z 02007KT 10SM SCT160 BKN250 15/08 A3007 RMK AO2 SLP180 T01500083
KIAH 130053Z 01007KT 10SM BKN160 BKN250 16/08 A3006 RMK AO2 SLP179 T01560078
KIAH 122353Z 03009G17KT 10SM FEW100 BKN160 BKN250 17/07 A3007 RMK AO2 SLP183 T01670072 10222 20167 56004